sensor_id;sensor_type;location;lat;lon;timestamp;temperature;humidity
2030;DHT22;1020;48.854;8.830;2022-08-20T00:00:32;19.40;99.90
2030;DHT22;1020;48.854;8.830;2022-08-20T00:03:03;19.30;99.90
2030;DHT22;1020;48.854;8.830;2022-08-20T00:05:33;19.30;1.00
2030;DHT22;1020;48.854;8.830;2022-08-20T00:08:02;19.30;1.00
2030;DHT22;1020;48.854;8.830;2022-08-20T00:10:31;19.30;1.00
2030;DHT22;1020;48.854;8.830;2022-08-20T00:12:58;19.30;1.00
2030;DHT22;1020;48.854;8.830;2022-08-20T00:15:31;19.30;1.00
2030;DHT22;1020;48.854;8.830;2022-08-20T00:17:58;19.30;1.00
2030;DHT22;1020;48.854;8.830;2022-08-20T00:20:31;19.30;1.00
2030;DHT22;1020;48.854;8.830;2022-08-20T00:22:58;19.40;1.00
2030;DHT22;1020;48.854;8.830;2022-08-20T00:25:26;19.40;1.00
2030;DHT22;1020;48.854;8.830;2022-08-20T00:27:54;19.40;1.00
2030;DHT22;1020;48.854;8.830;2022-08-20T00:30:21;19.40;1.00
2030;DHT22;1020;48.854;8.830;2022-08-20T00:32:52;19.40;1.00
2030;DHT22;1020;48.854;8.830;2022-08-20T00:35:21;19.30;1.00
2030;DHT22;1020;48.854;8.830;2022-08-20T00:37:49;19.30;1.00
2030;DHT22;1020;48.854;8.830;2022-08-20T00:40:18;19.20;9.10
2030;DHT22;1020;48.854;8.830;2022-08-20T00:42:49;19.20;39.90
2030;DHT22;1020;48.854;8.830;2022-08-20T00:45:18;19.20;88.10
2030;DHT22;1020;48.854;8.830;2022-08-20T00:47:45;19.20;99.90
2030;DHT22;1020;48.854;8.830;2022-08-20T00:50:17;19.20;99.90
2030;DHT22;1020;48.854;8.830;2022-08-20T00:52:46;19.10;99.90
2030;DHT22;1020;48.854;8.830;2022-08-20T00:55:16;19.20;99.90
2030;DHT22;1020;48.854;8.830;2022-08-20T00:57:46;19.20;99.90
2030;DHT22;1020;48.854;8.830;2022-08-20T01:00:18;19.20;99.90
2030;DHT22;1020;48.854;8.830;2022-08-20T01:02:45;19.30;99.90
2030;DHT22;1020;48.854;8.830;2022-08-20T01:05:13;19.20;83.40
2030;DHT22;1020;48.854;8.830;2022-08-20T01:07:40;19.30;16.70
2030;DHT22;1020;48.854;8.830;2022-08-20T01:10:12;19.30;36.80
2030;DHT22;1020;48.854;8.830;2022-08-20T01:12:43;19.30;1.00
2030;DHT22;1020;48.854;8.830;2022-08-20T01:15:13;19.40;1.00
2030;DHT22;1020;48.854;8.830;2022-08-20T01:17:44;19.40;1.00
2030;DHT22;1020;48.854;8.830;2022-08-20T01:20:15;19.40;1.00
2030;DHT22;1020;48.854;8.830;2022-08-20T01:22:46;19.40;1.00
2030;DHT22;1020;48.854;8.830;2022-08-20T01:25:43;19.30;1.00
2030;DHT22;1020;48.854;8.830;2022-08-20T01:28:11;19.30;1.00
2030;DHT22;1020;48.854;8.830;2022-08-20T01:30:39;19.30;1.00
2030;DHT22;1020;48.854;8.830;2022-08-20T01:33:06;19.40;1.00
2030;DHT22;1020;48.854;8.830;2022-08-20T01:35:37;19.40;1.00
2030;DHT22;1020;48.854;8.830;2022-08-20T01:38:05;19.40;1.00
2030;DHT22;1020;48.854;8.830;2022-08-20T01:40:49;19.30;1.00
2030;DHT22;1020;48.854;8.830;2022-08-20T01:43:17;19.30;22.40
2030;DHT22;1020;48.854;8.830;2022-08-20T01:45:44;19.20;99.90
2030;DHT22;1020;48.854;8.830;2022-08-20T01:48:11;19.20;99.90
2030;DHT22;1020;48.854;8.830;2022-08-20T01:50:41;19.20;99.90
2030;DHT22;1020;48.854;8.830;2022-08-20T01:53:15;19.10;99.90
2030;DHT22;1020;48.854;8.830;2022-08-20T01:55:42;19.00;99.90
2030;DHT22;1020;48.854;8.830;2022-08-20T01:58:11;19.00;99.90
2030;DHT22;1020;48.854;8.830;2022-08-20T02:00:39;19.00;99.90
2030;DHT22;1020;48.854;8.830;2022-08-20T02:03:05;19.10;99.90
2030;DHT22;1020;48.854;8.830;2022-08-20T02:05:34;19.00;99.90
2030;DHT22;1020;48.854;8.830;2022-08-20T02:08:01;19.10;99.90
2030;DHT22;1020;48.854;8.830;2022-08-20T02:10:29;19.10;99.90
2030;DHT22;1020;48.854;8.830;2022-08-20T02:12:56;19.00;99.90
2030;DHT22;1020;48.854;8.830;2022-08-20T02:15:25;19.00;1.00
2030;DHT22;1020;48.854;8.830;2022-08-20T02:17:51;19.00;1.00
2030;DHT22;1020;48.854;8.830;2022-08-20T02:20:25;18.90;1.00
2030;DHT22;1020;48.854;8.830;2022-08-20T02:22:54;18.90;1.00
2030;DHT22;1020;48.854;8.830;2022-08-20T02:25:23;18.90;1.00
2030;DHT22;1020;48.854;8.830;2022-08-20T02:27:51;18.80;1.00
2030;DHT22;1020;48.854;8.830;2022-08-20T02:30:20;18.80;1.00
2030;DHT22;1020;48.854;8.830;2022-08-20T02:32:49;18.80;1.00
2030;DHT22;1020;48.854;8.830;2022-08-20T02:35:16;18.80;1.00
2030;DHT22;1020;48.854;8.830;2022-08-20T02:37:44;18.80;1.00
2030;DHT22;1020;48.854;8.830;2022-08-20T02:40:14;18.90;1.00
2030;DHT22;1020;48.854;8.830;2022-08-20T02:42:42;18.90;1.00
2030;DHT22;1020;48.854;8.830;2022-08-20T02:45:10;18.90;1.00
2030;DHT22;1020;48.854;8.830;2022-08-20T02:47:37;18.90;1.00
2030;DHT22;1020;48.854;8.830;2022-08-20T02:50:09;18.90;1.00
2030;DHT22;1020;48.854;8.830;2022-08-20T02:52:36;19.00;1.00
2030;DHT22;1020;48.854;8.830;2022-08-20T02:55:04;19.00;1.00
2030;DHT22;1020;48.854;8.830;2022-08-20T02:57:31;19.00;1.00
2030;DHT22;1020;48.854;8.830;2022-08-20T02:59:57;19.00;1.00
2030;DHT22;1020;48.854;8.830;2022-08-20T03:02:25;19.00;1.00
2030;DHT22;1020;48.854;8.830;2022-08-20T03:04:51;19.00;1.00
2030;DHT22;1020;48.854;8.830;2022-08-20T03:07:19;19.00;1.00
2030;DHT22;1020;48.854;8.830;2022-08-20T03:09:47;19.00;1.00
2030;DHT22;1020;48.854;8.830;2022-08-20T03:12:13;19.00;1.00
2030;DHT22;1020;48.854;8.830;2022-08-20T03:14:41;19.00;1.00
2030;DHT22;1020;48.854;8.830;2022-08-20T03:17:08;19.00;1.00
2030;DHT22;1020;48.854;8.830;2022-08-20T03:19:34;19.00;1.00
2030;DHT22;1020;48.854;8.830;2022-08-20T03:22:01;19.00;1.00
2030;DHT22;1020;48.854;8.830;2022-08-20T03:24:29;19.00;1.00
2030;DHT22;1020;48.854;8.830;2022-08-20T03:26:57;19.00;1.00
2030;DHT22;1020;48.854;8.830;2022-08-20T03:29:24;19.00;1.00
2030;DHT22;1020;48.854;8.830;2022-08-20T03:31:50;19.00;1.00
2030;DHT22;1020;48.854;8.830;2022-08-20T03:34:17;19.00;1.00
2030;DHT22;1020;48.854;8.830;2022-08-20T03:36:44;19.00;1.00
2030;DHT22;1020;48.854;8.830;2022-08-20T03:39:11;19.00;1.00
2030;DHT22;1020;48.854;8.830;2022-08-20T03:41:39;19.00;1.00
2030;DHT22;1020;48.854;8.830;2022-08-20T03:44:05;19.00;1.00
2030;DHT22;1020;48.854;8.830;2022-08-20T03:46:33;19.00;1.00
2030;DHT22;1020;48.854;8.830;2022-08-20T03:48:59;18.90;1.00
2030;DHT22;1020;48.854;8.830;2022-08-20T03:51:26;18.90;1.00
2030;DHT22;1020;48.854;8.830;2022-08-20T03:53:53;18.90;1.00
2030;DHT22;1020;48.854;8.830;2022-08-20T03:56:20;18.90;1.00
2030;DHT22;1020;48.854;8.830;2022-08-20T03:58:48;18.90;1.00
2030;DHT22;1020;48.854;8.830;2022-08-20T04:01:15;18.90;1.00
2030;DHT22;1020;48.854;8.830;2022-08-20T04:03:42;18.90;1.00
2030;DHT22;1020;48.854;8.830;2022-08-20T04:06:10;18.90;1.00
2030;DHT22;1020;48.854;8.830;2022-08-20T04:08:36;18.90;1.00
2030;DHT22;1020;48.854;8.830;2022-08-20T04:11:05;18.90;1.00
2030;DHT22;1020;48.854;8.830;2022-08-20T04:13:32;18.90;1.00
2030;DHT22;1020;48.854;8.830;2022-08-20T04:16:02;19.00;1.00
2030;DHT22;1020;48.854;8.830;2022-08-20T04:18:34;19.00;1.00
2030;DHT22;1020;48.854;8.830;2022-08-20T04:21:02;19.00;1.00
2030;DHT22;1020;48.854;8.830;2022-08-20T04:23:29;18.90;1.00
2030;DHT22;1020;48.854;8.830;2022-08-20T04:25:56;19.00;1.00
2030;DHT22;1020;48.854;8.830;2022-08-20T04:28:24;19.00;1.00
2030;DHT22;1020;48.854;8.830;2022-08-20T04:30:54;19.00;1.00
2030;DHT22;1020;48.854;8.830;2022-08-20T04:33:22;19.00;1.00
2030;DHT22;1020;48.854;8.830;2022-08-20T04:35:50;19.00;1.00
2030;DHT22;1020;48.854;8.830;2022-08-20T04:38:18;19.00;1.00
2030;DHT22;1020;48.854;8.830;2022-08-20T04:40:46;19.00;1.00
2030;DHT22;1020;48.854;8.830;2022-08-20T04:43:24;19.00;1.00
2030;DHT22;1020;48.854;8.830;2022-08-20T04:45:51;19.00;1.00
2030;DHT22;1020;48.854;8.830;2022-08-20T04:48:21;19.00;1.00
2030;DHT22;1020;48.854;8.830;2022-08-20T04:50:51;19.00;1.00
2030;DHT22;1020;48.854;8.830;2022-08-20T04:53:20;19.00;1.00
2030;DHT22;1020;48.854;8.830;2022-08-20T04:55:49;18.90;1.00
2030;DHT22;1020;48.854;8.830;2022-08-20T04:58:18;18.90;1.00
2030;DHT22;1020;48.854;8.830;2022-08-20T05:00:46;18.90;1.00
2030;DHT22;1020;48.854;8.830;2022-08-20T05:03:13;18.80;3.10
2030;DHT22;1020;48.854;8.830;2022-08-20T05:05:42;18.80;4.50
2030;DHT22;1020;48.854;8.830;2022-08-20T05:08:09;18.90;7.70
2030;DHT22;1020;48.854;8.830;2022-08-20T05:10:37;18.90;8.20
2030;DHT22;1020;48.854;8.830;2022-08-20T05:13:04;18.90;6.40
2030;DHT22;1020;48.854;8.830;2022-08-20T05:15:31;18.90;5.90
2030;DHT22;1020;48.854;8.830;2022-08-20T05:18:00;18.90;2.80
2030;DHT22;1020;48.854;8.830;2022-08-20T05:20:29;19.00;3.10
2030;DHT22;1020;48.854;8.830;2022-08-20T05:22:58;19.00;1.20
2030;DHT22;1020;48.854;8.830;2022-08-20T05:25:25;19.00;1.00
2030;DHT22;1020;48.854;8.830;2022-08-20T05:27:56;19.00;1.00
2030;DHT22;1020;48.854;8.830;2022-08-20T05:30:26;19.10;1.00
2030;DHT22;1020;48.854;8.830;2022-08-20T05:32:57;19.10;1.00
2030;DHT22;1020;48.854;8.830;2022-08-20T05:35:24;19.20;1.00
2030;DHT22;1020;48.854;8.830;2022-08-20T05:37:52;19.20;1.00
2030;DHT22;1020;48.854;8.830;2022-08-20T05:40:20;19.20;1.00
2030;DHT22;1020;48.854;8.830;2022-08-20T05:42:47;19.30;1.00
2030;DHT22;1020;48.854;8.830;2022-08-20T05:45:14;19.30;1.00
2030;DHT22;1020;48.854;8.830;2022-08-20T05:50:12;19.40;1.00
2030;DHT22;1020;48.854;8.830;2022-08-20T05:52:40;19.40;1.00
2030;DHT22;1020;48.854;8.830;2022-08-20T05:55:09;19.50;1.00
2030;DHT22;1020;48.854;8.830;2022-08-20T05:57:39;19.50;1.00
2030;DHT22;1020;48.854;8.830;2022-08-20T06:00:10;19.60;1.00
2030;DHT22;1020;48.854;8.830;2022-08-20T06:02:38;19.60;1.00
2030;DHT22;1020;48.854;8.830;2022-08-20T06:05:23;19.60;1.00
2030;DHT22;1020;48.854;8.830;2022-08-20T06:07:51;19.60;1.00
2030;DHT22;1020;48.854;8.830;2022-08-20T06:10:18;19.60;1.00
2030;DHT22;1020;48.854;8.830;2022-08-20T06:12:46;19.60;1.00
2030;DHT22;1020;48.854;8.830;2022-08-20T06:15:13;19.60;1.00
2030;DHT22;1020;48.854;8.830;2022-08-20T06:17:40;19.60;1.00
2030;DHT22;1020;48.854;8.830;2022-08-20T06:20:08;19.60;1.00
2030;DHT22;1020;48.854;8.830;2022-08-20T06:22:35;19.70;1.00
2030;DHT22;1020;48.854;8.830;2022-08-20T06:25:03;19.70;1.00
2030;DHT22;1020;48.854;8.830;2022-08-20T06:27:31;19.80;1.00
2030;DHT22;1020;48.854;8.830;2022-08-20T06:29:59;19.90;1.00
2030;DHT22;1020;48.854;8.830;2022-08-20T06:32:26;19.90;99.90
2030;DHT22;1020;48.854;8.830;2022-08-20T06:34:53;20.00;99.90
2030;DHT22;1020;48.854;8.830;2022-08-20T06:37:21;20.20;99.90
2030;DHT22;1020;48.854;8.830;2022-08-20T06:39:49;20.20;99.90
2030;DHT22;1020;48.854;8.830;2022-08-20T06:42:16;20.30;99.90
2030;DHT22;1020;48.854;8.830;2022-08-20T06:44:42;20.30;99.90
2030;DHT22;1020;48.854;8.830;2022-08-20T06:47:16;20.40;55.00
2030;DHT22;1020;48.854;8.830;2022-08-20T06:49:43;20.30;1.00
2030;DHT22;1020;48.854;8.830;2022-08-20T06:52:10;20.20;99.90
2030;DHT22;1020;48.854;8.830;2022-08-20T06:54:37;20.20;99.90
2030;DHT22;1020;48.854;8.830;2022-08-20T06:57:04;20.10;99.90
2030;DHT22;1020;48.854;8.830;2022-08-20T06:59:31;20.20;92.00
2030;DHT22;1020;48.854;8.830;2022-08-20T07:01:58;20.40;35.20
2030;DHT22;1020;48.854;8.830;2022-08-20T07:04:26;20.50;1.00
2030;DHT22;1020;48.854;8.830;2022-08-20T07:06:54;20.60;99.90
2030;DHT22;1020;48.854;8.830;2022-08-20T07:09:22;19.10;1.00
2030;DHT22;1020;48.854;8.830;2022-08-20T07:11:49;20.80;99.90
2030;DHT22;1020;48.854;8.830;2022-08-20T07:14:17;20.80;93.20
2030;DHT22;1020;48.854;8.830;2022-08-20T07:16:44;20.80;43.90
2030;DHT22;1020;48.854;8.830;2022-08-20T07:19:12;20.70;99.90
2030;DHT22;1020;48.854;8.830;2022-08-20T07:21:40;20.70;1.00
2030;DHT22;1020;48.854;8.830;2022-08-20T07:24:07;20.80;1.00
2030;DHT22;1020;48.854;8.830;2022-08-20T07:26:35;20.70;1.00
2030;DHT22;1020;48.854;8.830;2022-08-20T07:29:02;20.90;1.00
2030;DHT22;1020;48.854;8.830;2022-08-20T07:31:28;21.10;1.00
2030;DHT22;1020;48.854;8.830;2022-08-20T07:34:12;21.30;99.90
2030;DHT22;1020;48.854;8.830;2022-08-20T07:36:41;21.50;1.00
2030;DHT22;1020;48.854;8.830;2022-08-20T07:39:08;21.60;1.00
2030;DHT22;1020;48.854;8.830;2022-08-20T07:41:35;21.70;99.90
2030;DHT22;1020;48.854;8.830;2022-08-20T07:44:02;21.60;99.90
2030;DHT22;1020;48.854;8.830;2022-08-20T07:46:29;21.40;99.90
2030;DHT22;1020;48.854;8.830;2022-08-20T07:48:56;21.20;99.90
2030;DHT22;1020;48.854;8.830;2022-08-20T07:51:23;21.10;1.00
2030;DHT22;1020;48.854;8.830;2022-08-20T07:53:51;21.20;1.00
2030;DHT22;1020;48.854;8.830;2022-08-20T07:56:23;21.20;1.00
2030;DHT22;1020;48.854;8.830;2022-08-20T07:58:52;21.20;99.90
2030;DHT22;1020;48.854;8.830;2022-08-20T08:01:24;21.20;1.00
2030;DHT22;1020;48.854;8.830;2022-08-20T08:03:51;21.20;1.00
2030;DHT22;1020;48.854;8.830;2022-08-20T08:06:18;21.10;1.00
2030;DHT22;1020;48.854;8.830;2022-08-20T08:08:46;21.10;1.00
2030;DHT22;1020;48.854;8.830;2022-08-20T08:11:14;21.10;1.00
2030;DHT22;1020;48.854;8.830;2022-08-20T08:13:42;21.10;1.00
2030;DHT22;1020;48.854;8.830;2022-08-20T08:16:09;21.00;1.00
2030;DHT22;1020;48.854;8.830;2022-08-20T08:18:44;21.10;1.00
2030;DHT22;1020;48.854;8.830;2022-08-20T08:21:13;21.10;1.00
2030;DHT22;1020;48.854;8.830;2022-08-20T08:23:41;20.90;1.00
2030;DHT22;1020;48.854;8.830;2022-08-20T08:26:09;21.00;1.00
2030;DHT22;1020;48.854;8.830;2022-08-20T08:28:37;20.80;1.00
2030;DHT22;1020;48.854;8.830;2022-08-20T08:31:06;20.90;1.00
2030;DHT22;1020;48.854;8.830;2022-08-20T08:33:33;20.90;1.00
2030;DHT22;1020;48.854;8.830;2022-08-20T08:36:03;21.00;1.00
2030;DHT22;1020;48.854;8.830;2022-08-20T08:38:32;21.10;1.00
2030;DHT22;1020;48.854;8.830;2022-08-20T08:41:03;21.30;99.90
2030;DHT22;1020;48.854;8.830;2022-08-20T08:43:33;21.20;99.90
2030;DHT22;1020;48.854;8.830;2022-08-20T08:46:05;21.20;99.90
2030;DHT22;1020;48.854;8.830;2022-08-20T08:48:35;21.20;99.90
2030;DHT22;1020;48.854;8.830;2022-08-20T08:51:04;21.20;99.90
2030;DHT22;1020;48.854;8.830;2022-08-20T08:53:39;21.20;99.90
2030;DHT22;1020;48.854;8.830;2022-08-20T08:56:10;21.10;99.90
2030;DHT22;1020;48.854;8.830;2022-08-20T08:58:39;20.80;99.90
2030;DHT22;1020;48.854;8.830;2022-08-20T09:01:13;20.50;99.90
2030;DHT22;1020;48.854;8.830;2022-08-20T09:03:41;20.30;99.90
2030;DHT22;1020;48.854;8.830;2022-08-20T09:06:13;20.10;1.00
2030;DHT22;1020;48.854;8.830;2022-08-20T09:08:45;20.10;1.00
2030;DHT22;1020;48.854;8.830;2022-08-20T09:11:15;20.30;1.00
2030;DHT22;1020;48.854;8.830;2022-08-20T09:13:42;20.40;99.90
2030;DHT22;1020;48.854;8.830;2022-08-20T09:16:11;20.60;99.90
2030;DHT22;1020;48.854;8.830;2022-08-20T09:18:38;20.90;1.00
2030;DHT22;1020;48.854;8.830;2022-08-20T09:21:06;21.20;99.90
2030;DHT22;1020;48.854;8.830;2022-08-20T09:23:34;21.10;1.00
2030;DHT22;1020;48.854;8.830;2022-08-20T09:26:00;20.80;1.00
2030;DHT22;1020;48.854;8.830;2022-08-20T09:28:27;20.30;1.00
2030;DHT22;1020;48.854;8.830;2022-08-20T09:30:54;19.70;99.90
2030;DHT22;1020;48.854;8.830;2022-08-20T09:33:22;19.30;99.90
2030;DHT22;1020;48.854;8.830;2022-08-20T09:35:49;18.90;99.90
2030;DHT22;1020;48.854;8.830;2022-08-20T09:38:15;18.60;99.90
2030;DHT22;1020;48.854;8.830;2022-08-20T09:40:42;18.60;99.90
2030;DHT22;1020;48.854;8.830;2022-08-20T09:43:09;18.70;99.90
2030;DHT22;1020;48.854;8.830;2022-08-20T09:45:36;18.60;99.90
2030;DHT22;1020;48.854;8.830;2022-08-20T09:48:03;18.60;99.90
2030;DHT22;1020;48.854;8.830;2022-08-20T09:50:34;18.60;99.90
2030;DHT22;1020;48.854;8.830;2022-08-20T09:53:03;18.60;99.90
2030;DHT22;1020;48.854;8.830;2022-08-20T09:55:33;18.60;99.90
2030;DHT22;1020;48.854;8.830;2022-08-20T09:58:02;18.70;99.90
2030;DHT22;1020;48.854;8.830;2022-08-20T10:00:29;18.90;99.90
2030;DHT22;1020;48.854;8.830;2022-08-20T10:02:56;19.00;99.90
2030;DHT22;1020;48.854;8.830;2022-08-20T10:05:25;19.00;99.90
2030;DHT22;1020;48.854;8.830;2022-08-20T10:07:53;19.00;99.90
2030;DHT22;1020;48.854;8.830;2022-08-20T10:10:19;19.00;99.90
2030;DHT22;1020;48.854;8.830;2022-08-20T10:12:46;18.90;99.90
2030;DHT22;1020;48.854;8.830;2022-08-20T10:15:13;19.00;99.90
2030;DHT22;1020;48.854;8.830;2022-08-20T10:17:41;19.00;99.90
2030;DHT22;1020;48.854;8.830;2022-08-20T10:20:10;19.00;99.90
2030;DHT22;1020;48.854;8.830;2022-08-20T10:22:37;19.10;99.90
2030;DHT22;1020;48.854;8.830;2022-08-20T10:25:06;20.40;99.90
2030;DHT22;1020;48.854;8.830;2022-08-20T10:27:33;19.30;99.90
2030;DHT22;1020;48.854;8.830;2022-08-20T10:30:00;19.40;99.90
2030;DHT22;1020;48.854;8.830;2022-08-20T10:32:27;19.70;99.90
2030;DHT22;1020;48.854;8.830;2022-08-20T10:34:53;19.80;99.90
2030;DHT22;1020;48.854;8.830;2022-08-20T10:37:22;19.90;99.90
2030;DHT22;1020;48.854;8.830;2022-08-20T10:39:49;20.10;99.90
2030;DHT22;1020;48.854;8.830;2022-08-20T10:42:17;20.30;99.90
2030;DHT22;1020;48.854;8.830;2022-08-20T10:44:44;20.70;99.90
2030;DHT22;1020;48.854;8.830;2022-08-20T10:47:16;21.20;99.90
2030;DHT22;1020;48.854;8.830;2022-08-20T10:49:44;21.80;61.70
2030;DHT22;1020;48.854;8.830;2022-08-20T10:52:11;22.20;1.00
2030;DHT22;1020;48.854;8.830;2022-08-20T10:54:37;22.70;1.00
2030;DHT22;1020;48.854;8.830;2022-08-20T10:57:07;23.10;1.00
2030;DHT22;1020;48.854;8.830;2022-08-20T10:59:38;23.40;1.00
2030;DHT22;1020;48.854;8.830;2022-08-20T11:02:05;24.60;99.90
2030;DHT22;1020;48.854;8.830;2022-08-20T11:04:32;25.20;99.90
2030;DHT22;1020;48.854;8.830;2022-08-20T11:07:10;25.30;1.00
2030;DHT22;1020;48.854;8.830;2022-08-20T11:09:37;25.80;1.00
2030;DHT22;1020;48.854;8.830;2022-08-20T11:12:04;25.90;1.00
2030;DHT22;1020;48.854;8.830;2022-08-20T11:14:31;26.50;1.00
2030;DHT22;1020;48.854;8.830;2022-08-20T11:16:59;26.30;1.00
2030;DHT22;1020;48.854;8.830;2022-08-20T11:19:26;26.40;99.90
2030;DHT22;1020;48.854;8.830;2022-08-20T11:21:53;26.80;99.90
2030;DHT22;1020;48.854;8.830;2022-08-20T11:24:20;27.30;99.90
2030;DHT22;1020;48.854;8.830;2022-08-20T11:26:47;27.80;1.00
2030;DHT22;1020;48.854;8.830;2022-08-20T11:29:15;27.50;1.00
2030;DHT22;1020;48.854;8.830;2022-08-20T11:31:42;27.20;1.00
2030;DHT22;1020;48.854;8.830;2022-08-20T11:34:10;26.90;99.90
2030;DHT22;1020;48.854;8.830;2022-08-20T11:36:37;27.30;99.90
2030;DHT22;1020;48.854;8.830;2022-08-20T11:39:04;27.60;64.80
2030;DHT22;1020;48.854;8.830;2022-08-20T11:41:30;27.20;26.00
2030;DHT22;1020;48.854;8.830;2022-08-20T11:43:57;27.20;95.90
2030;DHT22;1020;48.854;8.830;2022-08-20T11:46:24;27.80;99.90
2030;DHT22;1020;48.854;8.830;2022-08-20T11:48:51;27.60;51.70
2030;DHT22;1020;48.854;8.830;2022-08-20T11:51:19;27.30;32.40
2030;DHT22;1020;48.854;8.830;2022-08-20T11:53:45;26.20;99.90
2030;DHT22;1020;48.854;8.830;2022-08-20T11:56:12;25.50;1.00
2030;DHT22;1020;48.854;8.830;2022-08-20T11:58:41;25.00;99.90
2030;DHT22;1020;48.854;8.830;2022-08-20T12:01:08;24.80;1.00
2030;DHT22;1020;48.854;8.830;2022-08-20T12:03:35;24.90;1.00
2030;DHT22;1020;48.854;8.830;2022-08-20T12:06:02;24.90;99.90
2030;DHT22;1020;48.854;8.830;2022-08-20T12:08:30;24.50;1.00
2030;DHT22;1020;48.854;8.830;2022-08-20T12:10:59;24.50;99.90
2030;DHT22;1020;48.854;8.830;2022-08-20T12:13:28;24.70;99.90
2030;DHT22;1020;48.854;8.830;2022-08-20T12:15:55;24.90;99.90
2030;DHT22;1020;48.854;8.830;2022-08-20T12:18:22;24.70;99.90
2030;DHT22;1020;48.854;8.830;2022-08-20T12:20:49;24.30;99.90
2030;DHT22;1020;48.854;8.830;2022-08-20T12:23:15;24.10;99.90
2030;DHT22;1020;48.854;8.830;2022-08-20T12:25:44;24.30;99.90
2030;DHT22;1020;48.854;8.830;2022-08-20T12:28:11;24.60;99.90
2030;DHT22;1020;48.854;8.830;2022-08-20T12:30:38;24.90;1.00
2030;DHT22;1020;48.854;8.830;2022-08-20T12:33:05;24.70;1.00
2030;DHT22;1020;48.854;8.830;2022-08-20T12:35:32;24.50;1.00
2030;DHT22;1020;48.854;8.830;2022-08-20T12:38:01;24.60;41.40
2030;DHT22;1020;48.854;8.830;2022-08-20T12:40:29;24.90;1.00
2030;DHT22;1020;48.854;8.830;2022-08-20T12:42:58;24.90;1.00
2030;DHT22;1020;48.854;8.830;2022-08-20T12:45:25;25.40;1.00
2030;DHT22;1020;48.854;8.830;2022-08-20T12:47:51;25.50;1.00
2030;DHT22;1020;48.854;8.830;2022-08-20T12:50:22;25.90;1.00
2030;DHT22;1020;48.854;8.830;2022-08-20T12:52:50;25.80;1.00
2030;DHT22;1020;48.854;8.830;2022-08-20T12:55:18;26.10;1.00
2030;DHT22;1020;48.854;8.830;2022-08-20T12:57:47;26.60;1.00
2030;DHT22;1020;48.854;8.830;2022-08-20T13:00:18;27.40;1.00
2030;DHT22;1020;48.854;8.830;2022-08-20T13:02:47;26.70;1.00
2030;DHT22;1020;48.854;8.830;2022-08-20T13:05:15;26.90;1.00
2030;DHT22;1020;48.854;8.830;2022-08-20T13:07:42;27.00;1.00
2030;DHT22;1020;48.854;8.830;2022-08-20T13:10:12;27.20;1.00
2030;DHT22;1020;48.854;8.830;2022-08-20T13:12:40;27.20;1.00
2030;DHT22;1020;48.854;8.830;2022-08-20T13:15:07;26.70;99.90
2030;DHT22;1020;48.854;8.830;2022-08-20T13:17:36;26.80;99.90
2030;DHT22;1020;48.854;8.830;2022-08-20T13:20:04;27.20;99.90
2030;DHT22;1020;48.854;8.830;2022-08-20T13:22:31;27.30;99.90
2030;DHT22;1020;48.854;8.830;2022-08-20T13:24:57;27.40;99.90
2030;DHT22;1020;48.854;8.830;2022-08-20T13:27:24;27.30;99.90
2030;DHT22;1020;48.854;8.830;2022-08-20T13:29:54;27.70;99.90
2030;DHT22;1020;48.854;8.830;2022-08-20T13:32:23;28.10;99.90
2030;DHT22;1020;48.854;8.830;2022-08-20T13:34:51;27.70;99.90
2030;DHT22;1020;48.854;8.830;2022-08-20T13:37:19;27.50;99.90
2030;DHT22;1020;48.854;8.830;2022-08-20T13:39:46;27.70;99.90
2030;DHT22;1020;48.854;8.830;2022-08-20T13:42:13;28.10;99.90
2030;DHT22;1020;48.854;8.830;2022-08-20T13:44:41;28.30;99.90
2030;DHT22;1020;48.854;8.830;2022-08-20T13:47:14;27.70;99.90
2030;DHT22;1020;48.854;8.830;2022-08-20T13:49:41;27.40;99.90
2030;DHT22;1020;48.854;8.830;2022-08-20T13:52:09;27.40;99.90
2030;DHT22;1020;48.854;8.830;2022-08-20T13:54:36;27.80;99.90
2030;DHT22;1020;48.854;8.830;2022-08-20T13:57:05;28.10;99.90
2030;DHT22;1020;48.854;8.830;2022-08-20T13:59:35;28.00;99.90
2030;DHT22;1020;48.854;8.830;2022-08-20T14:02:02;28.10;99.90
2030;DHT22;1020;48.854;8.830;2022-08-20T14:04:29;27.80;99.90
2030;DHT22;1020;48.854;8.830;2022-08-20T14:06:56;27.70;99.90
2030;DHT22;1020;48.854;8.830;2022-08-20T14:09:24;27.40;99.90
2030;DHT22;1020;48.854;8.830;2022-08-20T14:11:50;27.20;99.90
2030;DHT22;1020;48.854;8.830;2022-08-20T14:14:17;27.30;99.90
2030;DHT22;1020;48.854;8.830;2022-08-20T14:16:44;27.70;99.90
2030;DHT22;1020;48.854;8.830;2022-08-20T14:19:11;28.20;99.90
2030;DHT22;1020;48.854;8.830;2022-08-20T14:21:37;28.20;99.90
2030;DHT22;1020;48.854;8.830;2022-08-20T14:24:04;28.10;99.90
2030;DHT22;1020;48.854;8.830;2022-08-20T14:26:32;28.60;99.90
2030;DHT22;1020;48.854;8.830;2022-08-20T14:28:59;28.40;99.90
2030;DHT22;1020;48.854;8.830;2022-08-20T14:31:26;28.30;99.90
2030;DHT22;1020;48.854;8.830;2022-08-20T14:33:52;28.60;99.90
2030;DHT22;1020;48.854;8.830;2022-08-20T14:36:19;29.30;99.90
2030;DHT22;1020;48.854;8.830;2022-08-20T14:38:46;29.50;99.90
2030;DHT22;1020;48.854;8.830;2022-08-20T14:41:13;28.30;99.90
2030;DHT22;1020;48.854;8.830;2022-08-20T14:43:41;27.90;99.90
2030;DHT22;1020;48.854;8.830;2022-08-20T14:46:07;27.40;99.90
2030;DHT22;1020;48.854;8.830;2022-08-20T14:48:34;27.10;99.90
2030;DHT22;1020;48.854;8.830;2022-08-20T14:51:01;26.70;99.90
2030;DHT22;1020;48.854;8.830;2022-08-20T14:53:28;26.70;99.90
2030;DHT22;1020;48.854;8.830;2022-08-20T14:55:55;27.00;99.90
2030;DHT22;1020;48.854;8.830;2022-08-20T14:58:22;27.10;99.90
2030;DHT22;1020;48.854;8.830;2022-08-20T15:00:50;27.00;99.90
2030;DHT22;1020;48.854;8.830;2022-08-20T15:03:17;27.30;99.90
2030;DHT22;1020;48.854;8.830;2022-08-20T15:05:45;27.80;99.90
2030;DHT22;1020;48.854;8.830;2022-08-20T15:08:12;28.10;99.90
2030;DHT22;1020;48.854;8.830;2022-08-20T15:10:39;28.10;99.90
2030;DHT22;1020;48.854;8.830;2022-08-20T15:13:06;27.70;99.90
2030;DHT22;1020;48.854;8.830;2022-08-20T15:15:33;27.70;99.90
2030;DHT22;1020;48.854;8.830;2022-08-20T15:18:01;27.80;99.90
2030;DHT22;1020;48.854;8.830;2022-08-20T15:20:30;28.20;99.90
2030;DHT22;1020;48.854;8.830;2022-08-20T15:22:58;27.90;99.90
2030;DHT22;1020;48.854;8.830;2022-08-20T15:25:27;27.70;99.90
2030;DHT22;1020;48.854;8.830;2022-08-20T15:27:55;27.20;99.90
2030;DHT22;1020;48.854;8.830;2022-08-20T15:30:22;27.40;99.90
2030;DHT22;1020;48.854;8.830;2022-08-20T15:32:50;27.50;99.90
2030;DHT22;1020;48.854;8.830;2022-08-20T15:35:18;27.50;99.90
2030;DHT22;1020;48.854;8.830;2022-08-20T15:37:47;27.20;99.90
2030;DHT22;1020;48.854;8.830;2022-08-20T15:40:18;26.60;99.90
2030;DHT22;1020;48.854;8.830;2022-08-20T15:42:45;26.90;99.90
2030;DHT22;1020;48.854;8.830;2022-08-20T15:45:13;27.10;99.90
2030;DHT22;1020;48.854;8.830;2022-08-20T15:47:49;26.90;99.90
2030;DHT22;1020;48.854;8.830;2022-08-20T15:50:32;26.80;99.90
2030;DHT22;1020;48.854;8.830;2022-08-20T15:53:03;27.00;99.90
2030;DHT22;1020;48.854;8.830;2022-08-20T15:55:32;26.90;99.90
2030;DHT22;1020;48.854;8.830;2022-08-20T15:58:07;28.50;99.90
2030;DHT22;1020;48.854;8.830;2022-08-20T16:00:40;26.60;99.90
2030;DHT22;1020;48.854;8.830;2022-08-20T16:06:16;26.60;99.90
2030;DHT22;1020;48.854;8.830;2022-08-20T16:09:00;26.40;99.90
2030;DHT22;1020;48.854;8.830;2022-08-20T16:11:43;26.50;99.90
2030;DHT22;1020;48.854;8.830;2022-08-20T16:14:14;26.50;99.90
2030;DHT22;1020;48.854;8.830;2022-08-20T16:16:45;26.50;99.90
2030;DHT22;1020;48.854;8.830;2022-08-20T16:19:17;26.20;99.90
2030;DHT22;1020;48.854;8.830;2022-08-20T16:21:48;26.30;99.90